Time;durP1;ratioP1;P1;durP2;ratioP2;P2;SDS_P1;SDS_P2;PMS_P1;PMS_P2;Temp;Humidity;BMP_temperature;BMP_pressure;BME280_temperature;BME280_humidity;BME280_pressure;Samples;Min_cycle;Max_cycle;Signal;HPM_P1;HPM_P2
2024/01/15 00:02:07;;;;;;;1.40;1.30;;;;;;;-10.44;97.02;97177.72;5034910;28;20111;-77
2024/01/15 00:04:41;;;;;;;1.13;1.13;;;;;;;-10.47;97.16;97182.28;5051779;28;20044;-78
2024/01/15 00:07:13;;;;;;;1.50;1.40;;;;;;;-10.50;97.24;97185.19;5019172;28;20076;-78
2024/01/15 00:09:40;;;;;;;1.45;1.35;;;;;;;-10.47;97.39;97179.66;5059686;28;20585;-78
2024/01/15 00:12:07;;;;;;;1.52;1.42;;;;;;;-10.45;97.42;97173.50;5091482;28;20052;-77
2024/01/15 00:14:35;;;;;;;1.40;1.30;;;;;;;-10.42;97.61;97181.81;5074532;28;20419;-79
2024/01/15 00:17:06;;;;;;;1.40;1.30;;;;;;;-10.39;97.62;97175.47;5074594;28;20060;-78
2024/01/15 00:19:41;;;;;;;1.10;1.10;;;;;;;-10.32;97.56;97171.25;5028369;28;20044;-78
2024/01/15 00:22:27;;;;;;;1.35;1.25;;;;;;;-10.37;97.57;97170.91;5076875;28;20147;-77
2024/01/15 00:24:56;;;;;;;1.42;1.33;;;;;;;-10.31;97.70;97175.47;5071542;28;20135;-77
2024/01/15 00:27:39;;;;;;;1.50;1.40;;;;;;;-10.29;97.68;97161.31;5072050;28;20431;-78
2024/01/15 00:30:09;;;;;;;1.02;1.02;;;;;;;-10.24;97.69;97163.41;5057429;28;20059;-79
2024/01/15 00:32:39;;;;;;;1.15;1.15;;;;;;;-10.22;97.84;97151.03;5055049;28;20095;-77
2024/01/15 00:35:35;;;;;;;1.50;1.40;;;;;;;-10.21;97.48;97163.09;5004324;28;20080;-77
2024/01/15 00:38:39;;;;;;;1.38;1.27;;;;;;;-10.17;97.69;97145.34;5044619;28;20048;-78
2024/01/15 00:41:07;;;;;;;1.60;1.50;;;;;;;-10.17;97.51;97151.38;5051139;28;20049;-78
2024/01/15 00:43:34;;;;;;;1.17;1.17;;;;;;;-10.11;97.69;97148.09;5051241;28;20083;-77
2024/01/15 00:46:03;;;;;;;1.23;1.17;;;;;;;-10.13;97.61;97144.84;5051508;28;20108;-78
2024/01/15 00:48:37;;;;;;;1.30;1.25;;;;;;;-10.16;97.66;97139.13;5050783;28;20509;-77
2024/01/15 00:51:05;;;;;;;1.17;1.17;;;;;;;-10.15;97.59;97140.75;5050495;28;20141;-77
2024/01/15 00:53:32;;;;;;;1.25;1.20;;;;;;;-10.07;97.94;97139.00;5050546;28;20504;-76
2024/01/15 00:56:03;;;;;;;1.08;1.08;;;;;;;-10.03;98.06;97134.25;5061910;28;20565;-78
2024/01/15 00:58:39;;;;;;;1.40;1.30;;;;;;;-10.02;97.84;97141.13;5038765;28;20127;-78
2024/01/15 01:01:06;;;;;;;1.30;1.25;;;;;;;-10.05;97.83;97131.84;5070591;28;20167;-77
2024/01/15 01:03:34;;;;;;;1.17;1.17;;;;;;;-10.07;98.09;97148.63;5070399;28;20144;-78
2024/01/15 01:06:05;;;;;;;1.52;1.42;;;;;;;-10.10;97.91;97128.88;5053915;28;20048;-77
2024/01/15 01:08:38;;;;;;;1.38;1.27;;;;;;;-10.07;98.35;97128.56;5052302;28;20110;-78
2024/01/15 01:11:09;;;;;;;1.02;1.02;;;;;;;-10.03;98.30;97129.03;5071753;28;20048;-77
2024/01/15 01:13:39;;;;;;;1.00;1.00;;;;;;;-10.03;98.43;97121.22;5092791;28;20060;-78
2024/01/15 01:16:06;;;;;;;1.00;1.00;;;;;;;-9.97;98.36;97122.38;5055589;28;20154;-76
2024/01/15 01:18:48;;;;;;;1.40;1.30;;;;;;;-9.91;98.64;97116.50;5091246;28;20113;-77
2024/01/15 01:21:38;;;;;;;1.17;1.17;;;;;;;-9.90;98.36;97113.75;4997574;28;20065;-78
2024/01/15 01:24:14;;;;;;;1.08;1.08;;;;;;;-9.88;98.60;97109.16;4985143;28;20526;-79
2024/01/15 01:27:27;;;;;;;1.48;1.38;;;;;;;-9.86;98.47;97101.97;5002350;28;20049;-77
2024/01/15 01:29:55;;;;;;;1.10;1.10;;;;;;;-9.85;98.73;97094.97;5030143;28;20065;-77
2024/01/15 01:32:22;;;;;;;1.52;1.42;;;;;;;-9.83;98.52;97093.81;5030307;28;20054;-78
2024/01/15 01:34:49;;;;;;;1.13;1.13;;;;;;;-9.75;98.75;97090.41;5030348;28;20053;-77
2024/01/15 01:37:24;;;;;;;1.00;1.00;;;;;;;-9.75;98.60;97087.78;5014661;28;20510;-77
2024/01/15 01:39:52;;;;;;;1.50;1.40;;;;;;;-9.73;98.56;97101.50;5014508;28;20055;-78
2024/01/15 01:42:19;;;;;;;1.42;1.33;;;;;;;-9.66;98.74;97083.38;5030088;28;20131;-77
2024/01/15 01:44:47;;;;;;;1.30;1.23;;;;;;;-9.57;98.98;97089.41;5030312;28;20049;-78
2024/01/15 01:47:15;;;;;;;1.20;1.20;;;;;;;-9.49;98.75;97089.44;5030044;28;20137;-78
2024/01/15 01:49:42;;;;;;;1.30;1.25;;;;;;;-9.51;98.60;97096.59;5013994;28;20057;-78
2024/01/15 01:52:16;;;;;;;1.20;1.20;;;;;;;-9.50;98.68;97085.16;5030092;28;20075;-77
2024/01/15 01:55:13;;;;;;;1.25;1.20;;;;;;;-9.46;98.90;97089.91;5030231;28;20049;-78
2024/01/15 01:58:00;;;;;;;1.15;1.15;;;;;;;-9.48;98.59;97078.78;5015011;28;20053;-77
2024/01/15 02:00:29;;;;;;;1.05;1.05;;;;;;;-9.43;98.67;97080.91;5010050;28;20517;-78
2024/01/15 02:02:59;;;;;;;1.10;1.10;;;;;;;-9.42;98.73;97077.31;5010337;28;20057;-77
2024/01/15 02:05:35;;;;;;;1.38;1.27;;;;;;;-9.44;98.78;97067.03;5025214;28;20095;-78
2024/01/15 02:08:03;;;;;;;1.00;1.00;;;;;;;-9.36;98.95;97063.59;5057260;28;20521;-76
2024/01/15 02:10:34;;;;;;;1.30;1.20;;;;;;;-9.32;98.94;97064.88;5057154;28;20041;-76
2024/01/15 02:13:12;;;;;;;1.10;1.10;;;;;;;-9.28;98.82;97058.34;5040463;28;20052;-78
2024/01/15 02:15:41;;;;;;;1.00;1.00;;;;;;;-9.27;98.82;97062.59;5057837;28;20072;-78
2024/01/15 02:18:15;;;;;;;1.25;1.20;;;;;;;-9.22;98.96;97062.91;5073393;28;20057;-79
2024/01/15 02:20:58;;;;;;;0.90;0.90;;;;;;;-9.21;99.13;97063.75;5057136;28;20137;-78
2024/01/15 02:23:28;;;;;;;1.30;1.20;;;;;;;-9.14;99.21;97058.63;5058736;28;20480;-78
2024/01/15 02:26:00;;;;;;;1.10;1.10;;;;;;;-9.09;98.75;97064.19;5007402;28;20052;-78
2024/01/15 02:28:28;;;;;;;1.00;1.00;;;;;;;-9.06;98.83;97064.66;5056768;28;20052;-78
2024/01/15 02:31:02;;;;;;;1.00;1.00;;;;;;;-9.09;98.84;97057.16;5041776;28;20055;-77
2024/01/15 02:33:30;;;;;;;1.00;1.00;;;;;;;-9.04;98.73;97062.72;5040446;28;20071;-77
2024/01/15 02:35:58;;;;;;;1.23;1.20;;;;;;;-9.04;98.93;97064.50;5073134;28;20147;-78
2024/01/15 02:38:26;;;;;;;1.00;1.00;;;;;;;-9.00;98.90;97057.94;5056366;28;20059;-78
2024/01/15 02:40:54;;;;;;;0.90;0.90;;;;;;;-8.93;99.09;97064.13;5073524;28;20041;-77
2024/01/15 02:43:24;;;;;;;1.20;1.20;;;;;;;-8.87;99.08;97058.22;5056577;28;20076;-77
2024/01/15 02:45:51;;;;;;;1.10;1.10;;;;;;;-8.83;98.96;97063.94;5072939;28;20052;-78
2024/01/15 02:48:19;;;;;;;1.15;1.15;;;;;;;-8.82;99.27;97058.53;5049502;28;20056;-78
2024/01/15 02:50:46;;;;;;;1.10;1.10;;;;;;;-8.75;99.23;97061.28;5094050;28;20044;-78
2024/01/15 02:53:14;;;;;;;1.13;1.13;;;;;;;-8.74;99.32;97058.47;5095141;28;20211;-77
2024/01/15 02:55:42;;;;;;;1.10;1.10;;;;;;;-8.68;99.34;97051.78;5094943;28;20036;-78
2024/01/15 02:58:19;;;;;;;1.13;1.13;;;;;;;-8.70;99.28;97043.28;5095177;28;20423;-77
2024/01/15 03:00:47;;;;;;;1.35;1.25;;;;;;;-8.65;99.39;97038.34;5077027;28;20068;-78
2024/01/15 03:03:21;;;;;;;1.45;1.35;;;;;;;-8.57;99.19;97058.41;5095115;28;20450;-78
2024/01/15 03:05:49;;;;;;;1.10;1.10;;;;;;;-8.60;99.10;97059.56;5095074;28;20520;-78
2024/01/15 03:08:17;;;;;;;1.02;1.02;;;;;;;-8.55;99.30;97053.84;5094536;28;20050;-77
2024/01/15 03:10:45;;;;;;;1.00;1.00;;;;;;;-8.50;99.27;97054.13;5076949;28;20048;-78
2024/01/15 03:13:12;;;;;;;1.35;1.25;;;;;;;-8.56;99.03;97044.34;5094212;28;20052;-78
2024/01/15 03:15:44;;;;;;;1.02;1.02;;;;;;;-8.50;99.46;97048.91;5060314;28;20401;-78
2024/01/15 03:18:12;;;;;;;1.10;1.10;;;;;;;-8.49;99.25;97049.72;5076613;28;20093;-78
2024/01/15 03:20:39;;;;;;;0.90;0.90;;;;;;;-8.52;99.45;97043.03;5095020;28;20044;-77
2024/01/15 03:23:06;;;;;;;1.10;1.10;;;;;;;-8.45;99.81;97041.34;5093516;28;20131;-77
2024/01/15 03:25:35;;;;;;;0.90;0.90;;;;;;;-8.44;99.73;97024.66;5109511;28;20080;-77
2024/01/15 03:28:07;;;;;;;1.00;1.00;;;;;;;-8.40;99.49;97041.66;5075727;28;20540;-78
2024/01/15 03:30:36;;;;;;;1.00;1.00;;;;;;;-8.37;99.72;97028.19;5092660;28;20449;-77
2024/01/15 03:33:04;;;;;;;1.00;1.00;;;;;;;-8.33;99.80;97019.00;5042929;28;20048;-78
2024/01/15 03:35:32;;;;;;;0.90;0.90;;;;;;;-8.30;99.78;97026.50;5094061;28;20052;-77
2024/01/15 03:37:59;;;;;;;1.00;1.00;;;;;;;-8.26;99.87;97023.53;5079950;28;20056;-78
2024/01/15 03:40:27;;;;;;;1.00;1.00;;;;;;;-8.28;99.78;97026.31;5074137;28;20072;-77
2024/01/15 03:42:54;;;;;;;0.95;0.95;;;;;;;-8.26;99.84;97018.31;5073683;28;20086;-78
2024/01/15 03:45:22;;;;;;;1.00;1.00;;;;;;;-8.23;99.90;97023.19;5072575;28;20563;-78
2024/01/15 03:47:50;;;;;;;1.00;1.00;;;;;;;-8.24;100.00;97024.19;5073659;28;20062;-77
2024/01/15 03:50:19;;;;;;;1.05;1.05;;;;;;;-8.23;100.00;97004.88;5026714;28;20040;-79
2024/01/15 03:52:46;;;;;;;1.17;1.17;;;;;;;-8.21;100.00;97015.97;5093826;28;20508;-77
2024/01/15 03:55:13;;;;;;;0.90;0.90;;;;;;;-8.17;100.00;97012.03;5092296;28;20048;-77
2024/01/15 03:57:40;;;;;;;0.80;0.80;;;;;;;-8.12;100.00;97013.13;5093776;28;20389;-78
2024/01/15 04:00:09;;;;;;;0.75;0.75;;;;;;;-8.21;100.00;97015.97;5093809;28;20048;-78
2024/01/15 04:02:45;;;;;;;0.80;0.80;;;;;;;-8.15;100.00;97007.41;5091367;28;20052;-79
2024/01/15 04:05:41;;;;;;;0.95;0.95;;;;;;;-8.13;100.00;97008.88;5027294;28;20071;-77
2024/01/15 04:08:13;;;;;;;0.80;0.80;;;;;;;-8.18;100.00;97005.97;5057866;28;20067;-78
2024/01/15 04:11:01;;;;;;;0.90;0.90;;;;;;;-8.14;100.00;97011.69;5087340;28;20056;-78
2024/01/15 04:13:36;;;;;;;0.95;0.95;;;;;;;-8.16;100.00;97011.03;5022584;28;20052;-77
2024/01/15 04:16:14;;;;;;;0.80;0.80;;;;;;;-8.15;100.00;97016.09;5056414;28;20103;-77
2024/01/15 04:18:41;;;;;;;0.90;0.90;;;;;;;-8.15;100.00;97010.03;5070743;28;20098;-77
2024/01/15 04:21:08;;;;;;;1.02;1.02;;;;;;;-8.17;100.00;97014.66;5070868;28;20049;-78
2024/01/15 04:23:40;;;;;;;1.10;1.10;;;;;;;-8.11;100.00;97001.66;5054035;28;20063;-77
2024/01/15 04:26:12;;;;;;;1.10;1.10;;;;;;;-8.10;100.00;97011.16;5039027;28;20048;-76
2024/01/15 04:28:40;;;;;;;1.10;1.10;;;;;;;-8.11;100.00;97006.88;5026635;28;20147;-78
2024/01/15 04:31:07;;;;;;;1.10;1.10;;;;;;;-8.11;100.00;97003.47;5024980;28;20049;-77
2024/01/15 04:33:47;;;;;;;0.90;0.90;;;;;;;-8.08;100.00;97003.94;5009406;28;20048;-78
2024/01/15 04:36:15;;;;;;;1.00;1.00;;;;;;;-7.98;100.00;97003.69;5021190;28;20050;-78
2024/01/15 04:38:53;;;;;;;1.00;1.00;;;;;;;-7.94;100.00;97001.53;5010029;28;20065;-80
2024/01/15 04:41:24;;;;;;;1.25;1.17;;;;;;;-7.93;100.00;97003.97;5013606;28;20037;-79
2024/01/15 04:43:52;;;;;;;1.05;1.05;;;;;;;-7.79;100.00;96998.97;5051699;28;20184;-78
2024/01/15 04:46:22;;;;;;;0.98;0.98;;;;;;;-7.76;100.00;96996.78;4699680;28;10000086;-78
2024/01/15 04:48:49;;;;;;;0.80;0.80;;;;;;;-7.73;100.00;97003.47;5043138;28;20604;-79
2024/01/15 04:51:17;;;;;;;1.00;1.00;;;;;;;-7.74;100.00;96980.91;5048876;28;20490;-80
2024/01/15 04:53:47;;;;;;;0.80;0.80;;;;;;;-7.64;100.00;96989.31;5042284;28;20040;-78
2024/01/15 04:56:19;;;;;;;0.80;0.80;;;;;;;-7.66;100.00;97002.59;5048762;28;20041;-78
2024/01/15 04:58:57;;;;;;;1.00;1.00;;;;;;;-7.63;100.00;97006.66;5035441;28;20048;-78
2024/01/15 05:01:41;;;;;;;1.10;1.10;;;;;;;-7.66;100.00;96993.91;5053139;28;20097;-77
2024/01/15 05:04:41;;;;;;;1.00;1.00;;;;;;;-7.56;100.00;97006.75;5035783;28;20052;-78
2024/01/15 05:07:32;;;;;;;0.88;0.88;;;;;;;-7.51;100.00;96992.13;5035135;28;20139;-79
2024/01/15 05:10:08;;;;;;;0.82;0.82;;;;;;;-7.41;100.00;96992.66;5044488;28;20429;-77
2024/01/15 05:13:47;;;;;;;0.98;0.98;;;;;;;-7.46;100.00;97007.31;5020901;28;20034;-79
2024/01/15 05:16:18;;;;;;;0.80;0.80;;;;;;;-7.45;100.00;96995.81;5045322;28;20049;-79
2024/01/15 05:18:47;;;;;;;0.90;0.90;;;;;;;-7.43;100.00;96999.09;5028622;28;20060;-79
2024/01/15 05:21:56;;;;;;;0.80;0.80;;;;;;;-7.44;100.00;96998.28;5014274;28;20044;-79
2024/01/15 05:24:35;;;;;;;0.90;0.90;;;;;;;-7.45;100.00;97001.06;5046591;28;20060;-80
2024/01/15 05:27:09;;;;;;;1.02;1.02;;;;;;;-7.41;100.00;96999.72;5046927;28;20037;-79
2024/01/15 05:30:13;;;;;;;1.00;1.00;;;;;;;-7.44;100.00;96993.03;5021922;28;20143;-79
2024/01/15 05:32:53;;;;;;;0.95;0.95;;;;;;;-7.44;100.00;97003.53;5018113;28;20049;-78
2024/01/15 05:38:24;;;;;;;0.88;0.88;;;;;;;-7.37;100.00;96989.69;5070910;28;20056;-78
2024/01/15 05:41:14;;;;;;;0.90;0.90;;;;;;;-7.32;100.00;96993.38;5044403;28;20056;-79
2024/01/15 05:43:48;;;;;;;1.00;1.00;;;;;;;-7.30;100.00;96991.41;5053546;28;20049;-79
2024/01/15 05:46:54;;;;;;;0.90;0.90;;;;;;;-7.27;100.00;96998.91;5033444;28;20587;-78
2024/01/15 05:49:21;;;;;;;0.95;0.95;;;;;;;-7.24;100.00;96998.56;5033498;28;20518;-78
2024/01/15 05:51:51;;;;;;;0.85;0.85;;;;;;;-7.20;100.00;97005.03;5033663;28;20057;-78
2024/01/15 05:54:19;;;;;;;0.75;0.75;;;;;;;-7.16;100.00;97008.13;5033594;28;20061;-79
2024/01/15 05:57:13;;;;;;;0.90;0.90;;;;;;;-7.15;100.00;97006.31;5041333;28;20668;-80
2024/01/15 06:00:35;;;;;;;0.70;0.70;;;;;;;-7.10;100.00;96999.53;5037921;28;20084;-79
2024/01/15 06:03:08;;;;;;;0.80;0.80;;;;;;;-7.11;100.00;97011.03;5007877;28;20048;-79
2024/01/15 06:05:45;;;;;;;0.82;0.82;;;;;;;-7.06;100.00;97005.25;4998365;28;20050;-77
2024/01/15 06:08:27;;;;;;;1.00;1.00;;;;;;;-7.04;100.00;97006.69;4974315;28;20050;-78
2024/01/15 06:11:12;;;;;;;0.80;0.80;;;;;;;-6.97;100.00;97004.13;4969075;28;20122;-78
2024/01/15 06:13:55;;;;;;;0.80;0.80;;;;;;;-6.99;100.00;97004.34;5007699;28;20481;-79
2024/01/15 06:16:32;;;;;;;0.93;0.93;;;;;;;-6.94;100.00;96995.09;5012543;28;20081;-78
2024/01/15 06:19:01;;;;;;;0.77;0.77;;;;;;;-6.91;100.00;96997.34;4946281;28;20055;-79
2024/01/15 06:21:53;;;;;;;0.82;0.82;;;;;;;-6.84;100.00;96995.63;4972879;28;20086;-78
2024/01/15 06:24:32;;;;;;;1.00;1.00;;;;;;;-6.81;100.00;97009.19;4960984;28;20238;-78
2024/01/15 06:27:29;;;;;;;0.80;0.80;;;;;;;-6.82;100.00;97001.50;4949574;29;20058;-77
2024/01/15 06:30:11;;;;;;;0.80;0.80;;;;;;;-6.72;100.00;97007.25;4951769;28;20055;-78
2024/01/15 06:32:50;;;;;;;0.80;0.80;;;;;;;-6.68;100.00;97016.41;4924937;29;20039;-77
2024/01/15 06:35:34;;;;;;;1.00;1.00;;;;;;;-6.69;100.00;96991.16;4916906;29;20150;-79
2024/01/15 06:38:08;;;;;;;0.82;0.82;;;;;;;-6.62;100.00;96999.91;4930894;29;20107;-76
2024/01/15 06:40:52;;;;;;;0.82;0.82;;;;;;;-6.55;100.00;97008.69;4934445;29;20138;-78
2024/01/15 06:43:21;;;;;;;0.90;0.90;;;;;;;-6.50;100.00;97004.69;4918677;29;20047;-78
2024/01/15 06:45:59;;;;;;;0.77;0.77;;;;;;;-6.45;100.00;97005.75;4958587;28;20039;-77
2024/01/15 06:49:08;;;;;;;0.77;0.77;;;;;;;-6.38;100.00;97018.94;4926759;28;20051;-77
2024/01/15 06:51:57;;;;;;;0.90;0.90;;;;;;;-6.40;100.00;97008.63;4988570;28;20050;-78
2024/01/15 06:54:26;;;;;;;1.00;1.00;;;;;;;-6.39;100.00;97009.44;5021102;28;20045;-78
2024/01/15 06:56:53;;;;;;;0.70;0.70;;;;;;;-6.35;100.00;97010.72;5035521;28;20491;-77
2024/01/15 06:59:22;;;;;;;0.93;0.93;;;;;;;-6.28;100.00;97005.50;5034268;28;20056;-78
2024/01/15 07:02:37;;;;;;;1.00;1.00;;;;;;;-6.21;100.00;97009.81;5025392;28;20521;-77
2024/01/15 07:05:13;;;;;;;0.80;0.80;;;;;;;-6.16;100.00;97023.22;5035712;28;20045;-77
2024/01/15 07:08:09;;;;;;;0.80;0.80;;;;;;;-6.13;100.00;97022.03;4967845;28;20267;-77
2024/01/15 07:10:50;;;;;;;0.80;0.80;;;;;;;-6.19;100.00;96991.28;5047145;28;20509;-77
2024/01/15 07:13:32;;;;;;;1.10;1.10;;;;;;;-6.15;100.00;97011.72;5032167;28;20536;-78
2024/01/15 07:16:02;;;;;;;1.00;1.00;;;;;;;-6.15;100.00;97019.59;5094516;28;20102;-78
2024/01/15 07:18:41;;;;;;;1.00;1.00;;;;;;;-6.13;100.00;97006.25;5058103;28;20052;-78
2024/01/15 07:21:15;;;;;;;0.73;0.73;;;;;;;-6.07;100.00;97012.59;5003271;28;20071;-78
2024/01/15 07:24:23;;;;;;;0.75;0.75;;;;;;;-6.05;100.00;97007.94;5025614;28;20118;-78
2024/01/15 07:26:59;;;;;;;0.70;0.70;;;;;;;-6.02;100.00;97002.34;5014399;28;20503;-78
2024/01/15 07:29:26;;;;;;;0.90;0.90;;;;;;;-5.96;100.00;97009.47;5006754;28;20486;-78
2024/01/15 07:32:00;;;;;;;0.88;0.88;;;;;;;-5.93;100.00;97001.97;5034377;28;20083;-78
2024/01/15 07:34:50;;;;;;;0.77;0.77;;;;;;;-5.88;100.00;97007.47;4992446;28;20145;-78
2024/01/15 07:37:23;;;;;;;0.82;0.82;;;;;;;-5.73;100.00;97014.47;5007570;28;20077;-78
2024/01/15 07:40:01;;;;;;;1.08;1.08;;;;;;;-5.69;100.00;97005.22;4995177;28;20089;-78
2024/01/15 07:42:34;;;;;;;0.80;0.80;;;;;;;-5.63;100.00;97001.00;4995964;28;20092;-78
2024/01/15 07:45:07;;;;;;;1.00;1.00;;;;;;;-5.59;100.00;97012.78;4940572;28;20555;-79
2024/01/15 07:47:36;;;;;;;0.90;0.90;;;;;;;-5.60;100.00;96971.72;4956557;28;20118;-79
2024/01/15 07:50:13;;;;;;;0.88;0.88;;;;;;;-5.56;100.00;96999.25;4956663;28;20074;-79
2024/01/15 07:52:44;;;;;;;1.00;1.00;;;;;;;-5.54;100.00;97013.00;4961712;28;20057;-79
2024/01/15 07:55:30;;;;;;;1.10;1.10;;;;;;;-5.50;100.00;97001.09;4939016;29;20079;-79
2024/01/15 07:58:01;;;;;;;1.00;1.00;;;;;;;-5.50;100.00;97006.34;4945725;28;20082;-79
2024/01/15 08:00:51;;;;;;;0.90;0.90;;;;;;;-5.49;100.00;96989.59;4952388;28;20074;-79
2024/01/15 08:03:25;;;;;;;0.90;0.90;;;;;;;-5.43;100.00;96996.69;4985879;28;20062;-78
2024/01/15 08:05:54;;;;;;;0.88;0.88;;;;;;;-5.42;100.00;97003.56;5001520;28;20046;-78
2024/01/15 08:08:27;;;;;;;0.95;0.95;;;;;;;-5.38;100.00;97004.00;4954359;28;20454;-78
2024/01/15 08:11:01;;;;;;;0.88;0.88;;;;;;;-5.42;100.00;97003.56;4908872;28;20083;-78
2024/01/15 08:13:40;;;;;;;0.85;0.85;;;;;;;-5.43;100.00;96999.31;4957621;28;20051;-78
2024/01/15 08:16:19;;;;;;;0.82;0.82;;;;;;;-5.40;100.00;97009.44;5008155;28;20046;-78
2024/01/15 08:19:21;;;;;;;0.95;0.95;;;;;;;-5.34;100.00;97015.75;4993226;28;20053;-79
2024/01/15 08:21:50;;;;;;;0.70;0.70;;;;;;;-5.37;100.00;96980.13;5015312;28;20088;-80
2024/01/15 08:24:17;;;;;;;0.82;0.82;;;;;;;-5.33;100.00;97001.63;5043171;28;20516;-79
2024/01/15 08:26:46;;;;;;;0.75;0.75;;;;;;;-5.33;100.00;97010.31;5084063;28;20094;-80
2024/01/15 08:29:13;;;;;;;1.00;1.00;;;;;;;-5.30;100.00;96995.97;5086904;28;20151;-80
2024/01/15 08:31:44;;;;;;;0.80;0.80;;;;;;;-5.29;100.00;97001.06;5024410;28;20048;-81
2024/01/15 08:34:13;;;;;;;0.95;0.95;;;;;;;-5.25;100.00;96989.13;5057345;28;20465;-79
2024/01/15 08:36:43;;;;;;;0.93;0.93;;;;;;;-5.20;100.00;97000.88;5033345;28;20073;-79
2024/01/15 08:39:18;;;;;;;0.90;0.90;;;;;;;-5.24;100.00;97008.38;4962852;28;20053;-78
2024/01/15 08:42:16;;;;;;;0.80;0.80;;;;;;;-5.17;100.00;97021.53;4978466;28;20050;-79
2024/01/15 08:45:13;;;;;;;0.75;0.75;;;;;;;-5.09;100.00;97013.47;4992139;28;20109;-78
2024/01/15 08:48:06;;;;;;;0.80;0.80;;;;;;;-5.01;100.00;97021.25;4958421;28;20062;-79
2024/01/15 08:51:07;;;;;;;0.90;0.90;;;;;;;-4.95;100.00;97023.09;4913398;29;20060;-78
2024/01/15 08:54:03;;;;;;;0.88;0.88;;;;;;;-4.85;100.00;96999.84;4880649;29;20092;-79
2024/01/15 08:56:44;;;;;;;0.80;0.80;;;;;;;-4.80;100.00;97005.34;4879776;29;20088;-77
2024/01/15 08:59:25;;;;;;;1.27;1.20;;;;;;;-4.68;100.00;97010.06;4934867;29;20055;-79
2024/01/15 09:01:59;;;;;;;0.80;0.80;;;;;;;-4.65;100.00;97010.47;4876381;29;20051;-79
2024/01/15 09:04:29;;;;;;;1.00;1.00;;;;;;;-4.58;100.00;97013.13;4912248;29;20051;-78
2024/01/15 09:07:00;;;;;;;1.02;1.02;;;;;;;-4.51;100.00;97015.78;4933490;29;20103;-78
2024/01/15 09:09:27;;;;;;;0.90;0.90;;;;;;;-4.48;99.98;97008.31;4955084;28;20133;-78
2024/01/15 09:12:30;;;;;;;0.98;0.98;;;;;;;-4.46;99.59;97011.53;4959998;28;20268;-78
2024/01/15 09:15:35;;;;;;;1.10;1.10;;;;;;;-4.51;99.59;97008.69;4961330;28;20077;-78
2024/01/15 09:18:07;;;;;;;1.33;1.23;;;;;;;-4.48;99.52;97002.22;4975973;28;20053;-78
2024/01/15 09:20:50;;;;;;;0.90;0.90;;;;;;;-4.46;99.18;97008.09;4989812;28;20044;-79
2024/01/15 09:23:31;;;;;;;1.08;1.08;;;;;;;-4.39;99.16;97004.47;4987145;28;20127;-79
2024/01/15 09:26:11;;;;;;;0.90;0.90;;;;;;;-4.36;99.18;97003.25;5017907;28;20076;-78
2024/01/15 09:28:50;;;;;;;1.10;1.10;;;;;;;-4.29;98.73;97004.09;5031038;28;20048;-78
2024/01/15 09:31:27;;;;;;;1.30;1.20;;;;;;;-4.23;98.59;97007.75;5008745;28;20053;-78
2024/01/15 09:34:18;;;;;;;1.05;1.05;;;;;;;-4.15;98.18;97007.59;4976708;28;20542;-78
2024/01/15 09:36:59;;;;;;;0.90;0.90;;;;;;;-4.16;97.70;96982.22;5009300;28;20527;-79
2024/01/15 09:39:44;;;;;;;1.08;1.08;;;;;;;-4.18;97.24;97005.31;4994015;28;20158;-78
2024/01/15 09:42:15;;;;;;;0.90;0.90;;;;;;;-4.21;96.75;96998.63;4993542;28;20460;-78
2024/01/15 09:44:51;;;;;;;0.88;0.88;;;;;;;-4.27;96.86;97009.19;4992714;28;20046;-78
2024/01/15 09:47:19;;;;;;;0.90;0.90;;;;;;;-4.27;96.90;97017.06;5009717;28;20153;-78
2024/01/15 09:49:46;;;;;;;0.80;0.80;;;;;;;-4.22;96.97;97004.13;4993707;28;20042;-78
2024/01/15 09:52:17;;;;;;;0.82;0.82;;;;;;;-4.17;96.74;97012.25;4973739;28;20477;-78
2024/01/15 09:54:57;;;;;;;1.00;1.00;;;;;;;-4.18;96.59;97010.59;5014406;28;20053;-78
2024/01/15 09:57:55;;;;;;;1.00;1.00;;;;;;;-4.12;96.57;97015.09;5017628;28;20058;-77
2024/01/15 10:00:24;;;;;;;1.00;1.00;;;;;;;-4.18;96.42;97016.69;5013582;28;20415;-78
2024/01/15 10:02:56;;;;;;;0.73;0.73;;;;;;;-4.22;96.31;96996.22;4964787;28;20054;-79
2024/01/15 10:05:23;;;;;;;0.80;0.80;;;;;;;-4.19;96.38;97006.34;5026115;28;20055;-77
2024/01/15 10:07:51;;;;;;;1.13;1.13;;;;;;;-4.12;96.28;97020.34;5032558;28;20080;-78
2024/01/15 10:10:19;;;;;;;1.15;1.15;;;;;;;-4.10;96.38;97022.75;5032698;28;20060;-79
2024/01/15 10:12:55;;;;;;;1.10;1.10;;;;;;;-4.10;96.43;97007.78;5001637;28;20072;-78
2024/01/15 10:15:27;;;;;;;1.08;1.08;;;;;;;-4.16;96.58;97006.75;5016964;28;20064;-78
2024/01/15 10:18:07;;;;;;;0.95;0.95;;;;;;;-4.19;96.51;97016.88;5045900;28;20045;-78
2024/01/15 10:20:47;;;;;;;1.10;1.10;;;;;;;-4.19;96.73;96985.28;4956446;28;20098;-78
2024/01/15 10:23:15;;;;;;;1.30;1.20;;;;;;;-4.23;96.37;97013.84;4978746;28;20519;-76
2024/01/15 10:25:45;;;;;;;1.02;1.02;;;;;;;-4.30;97.06;97001.66;4961885;28;20073;-79
2024/01/15 10:28:31;;;;;;;0.90;0.90;;;;;;;-4.22;97.08;97014.66;4998634;28;20100;-77
2024/01/15 10:31:05;;;;;;;;;;;;;;;-4.21;97.14;97006.53;4987234;28;20049;-77
2024/01/15 10:33:53;;;;;;;1.10;1.10;;;;;;;-4.23;96.65;97018.28;4915137;29;20003;-77
2024/01/15 10:36:39;;;;;;;1.10;1.10;;;;;;;-4.18;97.04;97015.88;4912393;29;20056;-78
2024/01/15 10:39:08;;;;;;;0.85;0.85;;;;;;;-4.17;96.96;97015.69;4893747;29;20063;-77
2024/01/15 10:41:44;;;;;;;0.93;0.93;;;;;;;-4.16;96.93;97024.38;4858319;29;20057;-78
2024/01/15 10:44:37;;;;;;;1.13;1.13;;;;;;;-4.13;97.02;97005.53;4869713;29;20060;-79
2024/01/15 10:47:20;;;;;;;0.85;0.85;;;;;;;-4.11;97.11;96990.34;4825836;29;20054;-78
2024/01/15 10:50:16;;;;;;;0.87;0.87;;;;;;;-4.10;96.91;97012.22;4817985;29;20057;-77
2024/01/15 10:52:52;;;;;;;1.00;1.00;;;;;;;-4.11;96.74;96989.53;4875084;29;20432;-78
2024/01/15 10:55:22;;;;;;;1.10;1.10;;;;;;;-4.11;96.69;97016.69;4862977;29;20460;-77
2024/01/15 10:58:33;;;;;;;1.02;1.02;;;;;;;-4.06;96.87;97030.09;4862078;29;20601;-77
2024/01/15 11:01:39;;;;;;;1.27;1.20;;;;;;;-4.10;96.62;97010.44;4863604;29;20111;-78
2024/01/15 11:04:14;;;;;;;1.10;1.10;;;;;;;-4.09;96.82;96998.88;4932393;29;20450;-78
2024/01/15 11:06:47;;;;;;;1.00;1.00;;;;;;;-3.99;96.55;97001.91;4945000;29;20059;-78
2024/01/15 11:09:24;;;;;;;1.00;1.00;;;;;;;-3.97;96.52;96999.09;4868136;29;20048;-77
2024/01/15 11:12:08;;;;;;;1.10;1.10;;;;;;;-3.94;96.38;96996.84;4928002;28;20058;-78
2024/01/15 11:15:10;;;;;;;1.02;1.02;;;;;;;-4.01;96.55;96996.03;4934640;28;20059;-80
2024/01/15 11:18:05;;;;;;;1.10;1.10;;;;;;;-3.98;96.22;96994.81;4939409;28;20054;-79
2024/01/15 11:20:34;;;;;;;1.10;1.10;;;;;;;-4.03;96.10;97005.97;5030814;28;20041;-79
2024/01/15 11:24:00;;;;;;;1.10;1.10;;;;;;;-4.08;96.20;96989.94;5059758;28;20052;-79
2024/01/15 11:26:47;;;;;;;1.10;1.10;;;;;;;-4.12;96.60;96996.63;5006009;28;20127;-78
2024/01/15 11:29:49;;;;;;;0.90;0.90;;;;;;;-4.06;96.66;96993.19;4982717;28;20072;-79
2024/01/15 11:32:33;;;;;;;1.08;1.08;;;;;;;-4.10;96.43;96997.25;4963519;28;20103;-78
2024/01/15 11:35:03;;;;;;;1.10;1.10;;;;;;;-4.12;96.56;96993.19;4971322;28;20066;-79
2024/01/15 11:37:50;;;;;;;1.00;1.00;;;;;;;-4.08;96.63;96992.56;4960721;28;20054;-78
2024/01/15 11:40:48;;;;;;;1.10;1.10;;;;;;;-4.11;96.51;96990.34;4962581;28;20447;-78
2024/01/15 11:43:23;;;;;;;0.90;0.90;;;;;;;-4.10;96.35;96978.81;4923066;28;20094;-79
2024/01/15 11:45:56;;;;;;;1.02;1.02;;;;;;;-4.12;96.55;96985.28;4963838;28;20062;-79
2024/01/15 11:48:46;;;;;;;1.33;1.23;;;;;;;-4.12;96.31;96978.19;4965181;28;20479;-79
2024/01/15 11:51:43;;;;;;;0.80;0.80;;;;;;;-4.14;96.37;96986.28;4978631;28;20515;-80
2024/01/15 11:54:16;;;;;;;0.98;0.98;;;;;;;-4.19;96.54;96985.28;4952641;28;20061;-80
2024/01/15 11:57:26;;;;;;;1.00;1.00;;;;;;;-4.17;96.97;96997.22;4975696;28;20045;-78
2024/01/15 12:00:03;;;;;;;0.70;0.70;;;;;;;-4.14;97.02;96991.56;4989086;28;20057;-78
2024/01/15 12:02:44;;;;;;;1.00;1.00;;;;;;;-4.12;96.97;96980.03;4968982;28;20043;-79
2024/01/15 12:05:34;;;;;;;0.80;0.80;;;;;;;-4.13;97.09;96987.09;4980847;28;20594;-79
2024/01/15 12:08:11;;;;;;;1.10;1.10;;;;;;;-4.17;97.20;96986.69;4940012;28;20047;-79
2024/01/15 12:10:40;;;;;;;1.03;1.03;;;;;;;-4.21;97.18;96989.94;4971969;28;20045;-78
2024/01/15 12:13:10;;;;;;;1.08;1.08;;;;;;;-4.26;97.42;96990.53;4978198;28;20134;-79
2024/01/15 12:15:42;;;;;;;1.10;1.10;;;;;;;-4.25;97.92;96999.25;4978888;28;20501;-78
2024/01/15 12:18:19;;;;;;;1.10;1.10;;;;;;;-4.25;97.95;96983.44;4970626;28;20045;-79
2024/01/15 12:21:09;;;;;;;1.00;1.00;;;;;;;-4.18;98.36;96984.25;5033904;28;20045;-79